createdAt,value
2018-04-15T00:01:07.699Z,8.10
2018-04-15T00:03:35.104Z,8.20
2018-04-15T00:06:01.790Z,8.20
2018-04-15T00:08:29.238Z,8.30
2018-04-15T00:10:55.952Z,8.20
2018-04-15T00:13:22.604Z,8.20
2018-04-15T00:15:49.515Z,8.20
2018-04-15T00:18:16.196Z,8.20
2018-04-15T00:20:43.688Z,8.00
2018-04-15T00:23:10.318Z,8.00
2018-04-15T00:25:37.702Z,7.90
2018-04-15T00:28:04.366Z,7.90
2018-04-15T00:30:31.091Z,7.80
2018-04-15T00:32:57.739Z,7.70
2018-04-15T00:35:24.505Z,7.60
2018-04-15T00:37:51.131Z,7.60
2018-04-15T00:40:17.859Z,7.50
2018-04-15T00:42:44.527Z,7.40
2018-04-15T00:45:11.273Z,7.40
2018-04-15T00:47:37.920Z,7.40
2018-04-15T00:50:04.623Z,7.30
2018-04-15T00:52:31.288Z,7.30
2018-04-15T00:54:58.130Z,7.30
2018-04-15T00:57:25.008Z,7.20
2018-04-15T00:59:52.416Z,7.10
2018-04-15T01:02:19.081Z,7.10
2018-04-15T01:04:45.780Z,7.10
2018-04-15T01:07:12.566Z,7.00
2018-04-15T01:09:39.267Z,7.00
2018-04-15T01:12:05.967Z,7.00
2018-04-15T01:14:33.407Z,7.00
2018-04-15T01:17:00.826Z,6.90
2018-04-15T01:19:27.507Z,6.90
2018-04-15T01:21:54.161Z,6.90
2018-04-15T01:24:21.004Z,6.90
2018-04-15T01:26:49.659Z,6.80
2018-04-15T01:29:16.323Z,6.90
2018-04-15T01:31:43.684Z,6.80
2018-04-15T01:34:11.348Z,6.90
2018-04-15T01:36:38.088Z,6.90
2018-04-15T01:39:05.547Z,6.90
2018-04-15T01:41:32.247Z,6.80
2018-04-15T01:43:58.842Z,6.80
2018-04-15T01:46:25.509Z,6.80
2018-04-15T01:48:52.186Z,6.80
2018-04-15T01:51:18.919Z,6.80
2018-04-15T01:53:45.570Z,6.80
2018-04-15T01:56:12.547Z,6.80
2018-04-15T01:58:39.380Z,6.70
2018-04-15T02:01:07.046Z,6.70
2018-04-15T02:03:33.991Z,6.70
2018-04-15T02:06:01.562Z,6.70
2018-04-15T02:08:28.409Z,6.60
2018-04-15T02:10:55.343Z,6.60
2018-04-15T02:13:22.287Z,6.60
2018-04-15T02:15:49.131Z,6.60
2018-04-15T02:18:17.717Z,6.50
2018-04-15T02:20:44.664Z,6.50
2018-04-15T02:23:12.326Z,6.50
2018-04-15T02:25:40.408Z,6.40
2018-04-15T02:28:07.350Z,6.40
2018-04-15T02:30:35.007Z,6.40
2018-04-15T02:33:09.740Z,6.40
2018-04-15T02:35:36.792Z,6.30
2018-04-15T02:38:04.660Z,6.40
2018-04-15T02:40:31.701Z,6.30
2018-04-15T02:43:01.518Z,6.30
2018-04-15T02:45:28.460Z,6.20
2018-04-15T02:47:55.305Z,6.20
2018-04-15T02:50:24.300Z,6.10
2018-04-15T02:52:51.872Z,6.00
2018-04-15T02:55:19.830Z,5.90
2018-04-15T02:57:46.690Z,5.90
2018-04-15T03:00:14.654Z,5.80
2018-04-15T03:02:41.604Z,5.70
2018-04-15T03:05:08.438Z,5.70
2018-04-15T03:07:35.385Z,5.60
2018-04-15T03:10:15.442Z,5.60
2018-04-15T03:12:42.282Z,5.60
2018-04-15T03:15:09.238Z,5.50
2018-04-15T03:17:36.071Z,5.50
2018-04-15T03:20:03.964Z,5.40
2018-04-15T03:22:30.881Z,5.40
2018-04-15T03:24:57.828Z,5.40
2018-04-15T03:27:25.386Z,5.30
2018-04-15T03:29:52.335Z,5.30
2018-04-15T03:32:19.893Z,5.30
2018-04-15T03:34:46.738Z,5.30
2018-04-15T03:37:13.475Z,5.30
2018-04-15T03:39:40.425Z,5.20
2018-04-15T03:42:07.371Z,5.20
2018-04-15T03:44:34.932Z,5.20
2018-04-15T03:47:02.610Z,5.20
2018-04-15T03:49:30.261Z,5.20
2018-04-15T03:51:57.209Z,5.10
2018-04-15T03:54:24.253Z,5.10
2018-04-15T03:56:51.200Z,5.10
2018-04-15T03:59:18.864Z,5.10
2018-04-15T04:01:45.910Z,5.00
2018-04-15T04:04:13.678Z,5.00
2018-04-15T04:06:40.520Z,5.00
2018-04-15T04:09:08.182Z,5.00
2018-04-15T04:11:35.847Z,5.00
2018-04-15T04:14:02.589Z,5.00
2018-04-15T04:16:30.250Z,5.00
2018-04-15T04:19:10.304Z,4.90
2018-04-15T04:21:49.435Z,4.90
2018-04-15T04:24:29.495Z,4.90
2018-04-15T04:26:56.339Z,4.80
2018-04-15T04:29:23.285Z,4.80
2018-04-15T04:31:50.020Z,4.80
2018-04-15T04:34:17.583Z,4.90
2018-04-15T04:36:46.268Z,4.90
2018-04-15T04:39:13.112Z,4.80
2018-04-15T04:41:39.956Z,4.90
2018-04-15T04:44:06.799Z,4.80
2018-04-15T04:46:33.746Z,4.70
2018-04-15T04:49:00.694Z,4.70
2018-04-15T04:51:27.539Z,4.70
2018-04-15T04:53:54.583Z,4.80
2018-04-15T04:56:22.247Z,4.70
2018-04-15T04:58:49.807Z,4.70
2018-04-15T05:01:16.754Z,4.70
2018-04-15T05:03:43.699Z,4.70
2018-04-15T05:06:10.458Z,4.70
2018-04-15T05:08:37.491Z,4.80
2018-04-15T05:11:04.440Z,4.80
2018-04-15T05:13:31.997Z,4.90
2018-04-15T05:15:58.844Z,4.90
2018-04-15T05:18:26.405Z,5.00
2018-04-15T05:20:53.346Z,5.00
2018-04-15T05:23:21.125Z,5.10
2018-04-15T05:25:48.058Z,5.10
2018-04-15T05:28:15.005Z,5.10
2018-04-15T05:30:42.477Z,5.20
2018-04-15T05:33:09.306Z,5.20
2018-04-15T05:35:36.253Z,5.30
2018-04-15T05:38:03.305Z,5.40
2018-04-15T05:40:30.250Z,5.40
2018-04-15T05:42:57.091Z,5.50
2018-04-15T05:45:24.039Z,5.50
2018-04-15T05:47:50.814Z,5.60
2018-04-15T05:50:17.731Z,5.70
2018-04-15T05:52:44.572Z,5.80
2018-04-15T05:55:11.520Z,6.00
2018-04-15T05:57:39.178Z,6.10
2018-04-15T06:00:05.938Z,6.10
2018-04-15T06:02:32.865Z,6.30
2018-04-15T06:04:59.815Z,6.40
2018-04-15T06:07:26.858Z,6.50
2018-04-15T06:09:53.805Z,6.60
2018-04-15T06:12:20.753Z,6.70
2018-04-15T06:14:47.596Z,6.80
2018-04-15T06:17:15.261Z,7.00
2018-04-15T06:19:43.852Z,7.10
2018-04-15T06:22:10.800Z,7.10
2018-04-15T06:24:37.805Z,7.30
2018-04-15T06:27:04.685Z,7.50
2018-04-15T06:29:31.526Z,7.60
2018-04-15T06:31:59.087Z,7.80
2018-04-15T06:34:26.033Z,7.90
2018-04-15T06:36:53.014Z,8.00
2018-04-15T06:39:19.923Z,8.10
2018-04-15T06:41:47.587Z,8.40
2018-04-15T06:44:14.431Z,8.40
2018-04-15T06:46:41.177Z,8.60
2018-04-15T06:49:08.221Z,8.70
2018-04-15T06:51:35.679Z,9.00
2018-04-15T06:54:03.342Z,9.10
2018-04-15T06:56:31.007Z,9.20
2018-04-15T06:58:58.674Z,9.30
2018-04-15T07:01:25.511Z,9.20
2018-04-15T07:03:52.253Z,9.40
2018-04-15T07:06:19.916Z,9.60
2018-04-15T07:08:46.760Z,9.60
2018-04-15T07:11:13.705Z,9.60
2018-04-15T07:13:41.267Z,10.10
2018-04-15T07:16:08.314Z,10.00
2018-04-15T07:18:35.779Z,10.60
2018-04-15T07:21:02.480Z,10.60
2018-04-15T07:23:29.461Z,11.10
2018-04-15T07:25:56.304Z,11.50
2018-04-15T07:28:23.967Z,12.00
2018-04-15T07:30:51.530Z,12.10
2018-04-15T07:33:18.472Z,12.10
2018-04-15T07:35:46.239Z,12.50
2018-04-15T07:38:13.192Z,12.50
2018-04-15T07:40:40.131Z,12.50
2018-04-15T07:43:11.629Z,12.40
2018-04-15T07:45:38.533Z,12.40
2018-04-15T07:48:06.193Z,12.40
2018-04-15T07:50:33.757Z,12.40
2018-04-15T07:53:01.519Z,12.60
2018-04-15T07:55:28.978Z,12.80
2018-04-15T07:57:56.539Z,13.00
2018-04-15T08:00:24.201Z,13.40
2018-04-15T08:02:51.761Z,13.80
2018-04-15T08:05:22.599Z,13.80
2018-04-15T08:07:49.445Z,14.00
2018-04-15T08:10:16.285Z,14.30
2018-04-15T08:12:43.777Z,14.60
2018-04-15T08:15:10.607Z,14.50
2018-04-15T08:17:37.535Z,14.60
2018-04-15T08:20:04.482Z,14.80
2018-04-15T08:22:31.945Z,15.10
2018-04-15T08:24:58.885Z,15.00
2018-04-15T08:27:25.831Z,15.00
2018-04-15T08:29:53.392Z,14.90
2018-04-15T08:32:20.308Z,14.90
2018-04-15T08:34:47.184Z,14.80
2018-04-15T08:37:14.130Z,14.90
2018-04-15T08:39:41.074Z,15.00
2018-04-15T08:42:07.923Z,15.10
2018-04-15T08:44:34.762Z,15.40
2018-04-15T08:47:01.607Z,15.70
2018-04-15T08:49:28.554Z,16.10
2018-04-15T08:51:55.399Z,16.40
2018-04-15T08:54:22.341Z,16.60
2018-04-15T08:56:50.007Z,17.30
2018-04-15T08:59:17.668Z,17.90
2018-04-15T09:01:46.254Z,18.70
2018-04-15T09:04:12.998Z,18.70
2018-04-15T09:06:40.247Z,19.50
2018-04-15T09:09:07.012Z,20.10
2018-04-15T09:11:34.143Z,20.30
2018-04-15T09:14:01.087Z,20.40
2018-04-15T09:16:27.929Z,20.70
2018-04-15T09:18:55.696Z,20.70
2018-04-15T09:21:22.539Z,20.70
2018-04-15T09:23:49.383Z,20.60
2018-04-15T09:26:16.227Z,20.30
2018-04-15T09:28:43.173Z,20.10
2018-04-15T09:31:11.970Z,19.90
2018-04-15T09:33:38.909Z,20.20
2018-04-15T09:36:05.660Z,20.30
2018-04-15T09:38:32.598Z,20.10
2018-04-15T09:40:59.549Z,19.90
2018-04-15T09:43:26.391Z,19.60
2018-04-15T09:45:53.332Z,19.50
2018-04-15T09:48:20.276Z,19.50
2018-04-15T09:50:47.017Z,19.40
2018-04-15T09:53:14.600Z,19.20
2018-04-15T09:55:41.437Z,19.20
2018-04-15T09:58:08.369Z,19.10
2018-04-15T10:00:35.930Z,18.70
2018-04-15T10:03:03.492Z,18.80
2018-04-15T10:05:31.255Z,18.80
2018-04-15T10:07:58.817Z,18.70
2018-04-15T10:10:25.766Z,18.70
2018-04-15T10:12:52.504Z,18.60
2018-04-15T10:15:19.353Z,18.50
2018-04-15T10:17:46.089Z,18.60
2018-04-15T10:20:13.036Z,18.60
2018-04-15T10:22:40.698Z,18.70
2018-04-15T10:25:08.367Z,18.70
2018-04-15T10:27:35.316Z,18.60
2018-04-15T10:30:02.255Z,18.60
2018-04-15T10:32:29.105Z,18.60
2018-04-15T10:34:56.044Z,18.70
2018-04-15T10:37:23.707Z,18.70
2018-04-15T10:39:50.761Z,18.70
2018-04-15T10:42:17.513Z,18.70
2018-04-15T10:44:44.447Z,18.80
2018-04-15T10:47:11.291Z,19.00
2018-04-15T10:49:38.240Z,19.10
2018-04-15T10:52:05.185Z,19.20
2018-04-15T10:54:32.127Z,19.40
2018-04-15T10:56:59.895Z,19.50
2018-04-15T10:59:26.842Z,19.50
2018-04-15T11:01:54.401Z,19.50
2018-04-15T11:04:21.346Z,19.50
2018-04-15T11:06:48.191Z,19.60
2018-04-15T11:09:19.847Z,19.70
2018-04-15T11:11:47.509Z,19.80
2018-04-15T11:14:14.253Z,19.70
2018-04-15T11:16:41.300Z,19.70
2018-04-15T11:19:08.963Z,19.50
2018-04-15T11:21:36.115Z,19.40
2018-04-15T11:24:02.957Z,19.40
2018-04-15T11:26:29.824Z,19.20
2018-04-15T11:28:56.709Z,19.20
2018-04-15T11:31:23.594Z,19.20
2018-04-15T11:33:50.540Z,19.20
2018-04-15T11:36:17.485Z,19.40
2018-04-15T11:38:44.326Z,19.70
2018-04-15T11:41:11.376Z,20.10
2018-04-15T11:43:38.228Z,20.70
2018-04-15T11:46:05.169Z,21.10
2018-04-15T11:48:32.009Z,21.50
2018-04-15T11:50:58.956Z,21.80
2018-04-15T11:53:25.823Z,22.20
2018-04-15T11:55:52.848Z,22.70
2018-04-15T11:58:19.798Z,23.40
2018-04-15T12:00:46.650Z,24.30
2018-04-15T12:03:13.585Z,25.10
2018-04-15T12:05:40.532Z,25.80
2018-04-15T12:08:07.375Z,26.50
2018-04-15T12:10:38.115Z,27.00
2018-04-15T12:13:05.055Z,27.20
2018-04-15T12:15:32.725Z,26.80
2018-04-15T12:17:59.665Z,26.80
2018-04-15T12:20:26.718Z,26.50
2018-04-15T12:22:53.660Z,25.80
2018-04-15T12:25:20.708Z,25.30
2018-04-15T12:27:52.570Z,25.30
2018-04-15T12:30:19.519Z,25.30
2018-04-15T12:32:46.464Z,25.50
2018-04-15T12:35:13.246Z,25.70
2018-04-15T12:37:40.159Z,26.20
2018-04-15T12:40:08.122Z,26.70
2018-04-15T12:42:34.971Z,27.30
2018-04-15T12:45:02.018Z,27.80
2018-04-15T12:47:29.166Z,27.90
2018-04-15T12:49:56.114Z,28.20
2018-04-15T12:52:22.854Z,28.40
2018-04-15T12:54:49.696Z,28.10
2018-04-15T12:57:17.359Z,28.20
2018-04-15T12:59:45.125Z,28.30
2018-04-15T13:02:12.787Z,28.30
2018-04-15T13:04:40.354Z,28.10
2018-04-15T13:07:07.298Z,28.10
2018-04-15T13:09:34.248Z,28.10
2018-04-15T13:12:05.077Z,27.80
2018-04-15T13:14:32.126Z,27.60
2018-04-15T13:16:59.315Z,27.50
2018-04-15T13:19:26.227Z,27.50
2018-04-15T13:21:53.170Z,27.50
2018-04-15T13:24:20.120Z,27.70
2018-04-15T13:26:47.060Z,27.70
2018-04-15T13:29:14.723Z,28.10
2018-04-15T13:31:41.569Z,28.10
2018-04-15T13:34:09.231Z,28.60
2018-04-15T13:36:36.893Z,28.70
2018-04-15T13:39:05.786Z,28.70
2018-04-15T13:41:33.448Z,28.80
2018-04-15T13:44:01.111Z,28.80
2018-04-15T13:46:28.057Z,28.80
2018-04-15T13:48:55.111Z,28.50
2018-04-15T13:51:22.053Z,28.30
2018-04-15T13:53:49.722Z,27.20
2018-04-15T13:56:16.661Z,27.20
2018-04-15T13:58:43.622Z,26.70
2018-04-15T14:01:10.666Z,26.10
2018-04-15T14:03:37.508Z,25.50
2018-04-15T14:06:05.162Z,24.80
2018-04-15T14:08:32.108Z,24.80
2018-04-15T14:10:59.053Z,24.40
2018-04-15T14:13:26.008Z,24.40
2018-04-15T14:15:52.948Z,24.10
2018-04-15T14:18:20.021Z,23.70
2018-04-15T14:20:47.438Z,23.40
2018-04-15T14:23:14.506Z,23.20
2018-04-15T14:25:41.551Z,23.30
2018-04-15T14:28:08.410Z,23.40
2018-04-15T14:30:35.442Z,23.50
2018-04-15T14:33:02.311Z,23.50
2018-04-15T14:35:29.336Z,23.30
2018-04-15T14:37:56.391Z,23.10
2018-04-15T14:40:23.235Z,23.00
2018-04-15T14:42:50.072Z,22.90
2018-04-15T14:45:17.128Z,22.80
2018-04-15T14:47:44.167Z,22.70
2018-04-15T14:50:11.852Z,22.70
2018-04-15T14:52:38.787Z,22.80
2018-04-15T14:55:05.728Z,22.90
2018-04-15T14:57:32.580Z,22.60
2018-04-15T14:59:59.620Z,22.50
2018-04-15T15:02:26.665Z,22.40
2018-04-15T15:04:53.532Z,22.50
2018-04-15T15:07:20.460Z,22.50
2018-04-15T15:09:48.224Z,22.60
2018-04-15T15:12:15.171Z,22.50
2018-04-15T15:14:42.929Z,22.60
2018-04-15T15:17:10.082Z,22.60
2018-04-15T15:19:37.147Z,22.70
2018-04-15T15:22:04.188Z,22.90
2018-04-15T15:24:31.228Z,22.90
2018-04-15T15:26:58.007Z,23.00
2018-04-15T15:29:25.426Z,22.90
2018-04-15T15:31:53.190Z,22.80
2018-04-15T15:34:20.342Z,22.70
2018-04-15T15:36:47.391Z,22.60
2018-04-15T15:39:14.447Z,22.40
2018-04-15T15:41:41.389Z,22.30
2018-04-15T15:44:08.848Z,22.30
2018-04-15T15:46:36.726Z,22.20
2018-04-15T15:49:03.760Z,22.20
2018-04-15T15:51:31.340Z,22.10
2018-04-15T15:53:58.267Z,22.10
2018-04-15T15:56:25.324Z,21.90
2018-04-15T15:58:52.363Z,21.80
2018-04-15T16:01:19.269Z,21.80
2018-04-15T16:03:46.869Z,21.60
2018-04-15T16:06:14.640Z,21.50
2018-04-15T16:08:41.786Z,21.50
2018-04-15T16:11:09.040Z,21.50
2018-04-15T16:13:36.191Z,21.30
2018-04-15T16:16:03.136Z,21.00
2018-04-15T16:18:30.194Z,20.70
2018-04-15T16:20:57.246Z,20.40
2018-04-15T16:23:24.487Z,20.10
2018-04-15T16:25:52.252Z,19.80
2018-04-15T16:28:19.507Z,19.80
2018-04-15T16:30:46.453Z,19.70
2018-04-15T16:33:13.501Z,19.50
2018-04-15T16:35:40.653Z,19.50
2018-04-15T16:38:08.212Z,19.50
2018-04-15T16:40:35.056Z,19.40
2018-04-15T16:43:02.105Z,19.30
2018-04-15T16:45:29.666Z,19.00
2018-04-15T16:47:56.799Z,19.00
2018-04-15T16:50:23.967Z,18.80
2018-04-15T16:52:51.079Z,18.80
2018-04-15T16:55:18.070Z,18.70
2018-04-15T16:57:45.427Z,18.70
2018-04-15T17:00:12.436Z,18.60
2018-04-15T17:02:39.615Z,18.40
2018-04-15T17:05:06.771Z,18.30
2018-04-15T17:07:33.937Z,18.30
2018-04-15T17:10:01.788Z,18.10
2018-04-15T17:12:28.748Z,18.10
2018-04-15T17:14:55.784Z,18.10
2018-04-15T17:17:23.872Z,18.00
2018-04-15T17:19:50.904Z,17.90
2018-04-15T17:22:17.865Z,17.80
2018-04-15T17:24:44.806Z,17.80
2018-04-15T17:27:11.752Z,17.70
2018-04-15T17:32:36.226Z,17.60
2018-04-15T17:35:03.073Z,17.50
2018-04-15T17:37:29.628Z,17.50
2018-04-15T17:39:56.144Z,17.50
2018-04-15T17:42:22.626Z,17.40
2018-04-15T17:44:49.185Z,17.30
2018-04-15T17:47:15.718Z,17.20
2018-04-15T17:49:42.242Z,17.20
2018-04-15T17:52:09.492Z,17.00
2018-04-15T17:54:36.832Z,17.00
2018-04-15T17:57:03.344Z,16.90
2018-04-15T17:59:29.828Z,16.90
2018-04-15T18:01:56.455Z,16.80
2018-04-15T18:04:22.896Z,16.70
2018-04-15T18:06:50.116Z,16.60
2018-04-15T18:09:16.607Z,16.50
2018-04-15T18:11:43.133Z,16.50
2018-04-15T18:14:09.690Z,16.40
2018-04-15T18:16:36.236Z,16.30
2018-04-15T18:19:02.787Z,16.30
2018-04-15T18:21:29.284Z,16.20
2018-04-15T18:23:55.817Z,16.10
2018-04-15T18:26:22.421Z,16.00
2018-04-15T18:28:49.744Z,15.80
2018-04-15T18:31:16.241Z,15.80
2018-04-15T18:33:43.485Z,15.60
2018-04-15T18:36:11.739Z,15.50
2018-04-15T18:38:38.228Z,15.50
2018-04-15T18:41:04.751Z,15.50
2018-04-15T18:43:31.299Z,15.40
2018-04-15T18:45:57.809Z,15.30
2018-04-15T18:48:25.053Z,15.20
2018-04-15T18:50:51.542Z,15.20
2018-04-15T18:53:18.050Z,15.20
2018-04-15T18:55:44.565Z,15.10
2018-04-15T18:58:11.876Z,14.90
2018-04-15T19:00:38.334Z,14.90
2018-04-15T19:03:04.822Z,14.90
2018-04-15T19:05:31.292Z,14.80
2018-04-15T19:07:57.883Z,14.80
2018-04-15T19:10:24.405Z,14.70
2018-04-15T19:12:50.887Z,14.70
2018-04-15T19:15:17.348Z,14.70
2018-04-15T19:17:44.063Z,14.60
2018-04-15T19:20:10.603Z,14.60
2018-04-15T19:22:37.160Z,14.50
2018-04-15T19:25:03.647Z,14.50
2018-04-15T19:27:30.140Z,14.40
2018-04-15T19:29:56.588Z,14.30
2018-04-15T19:32:23.302Z,14.30
2018-04-15T19:34:49.735Z,14.30
2018-04-15T19:37:16.298Z,14.30
2018-04-15T19:39:43.480Z,14.20
2018-04-15T19:42:09.958Z,14.20
2018-04-15T19:44:39.678Z,14.20
2018-04-15T19:47:06.705Z,14.20
2018-04-15T19:49:33.205Z,14.10
2018-04-15T19:51:59.896Z,14.10
2018-04-15T19:54:26.328Z,14.00
2018-04-15T19:56:52.848Z,14.00
2018-04-15T19:59:19.323Z,14.00
2018-04-15T20:01:46.637Z,13.90
2018-04-15T20:04:13.150Z,13.90
2018-04-15T20:06:39.608Z,13.80
2018-04-15T20:09:06.105Z,13.80
2018-04-15T20:11:33.314Z,13.70
2018-04-15T20:13:59.856Z,13.70
2018-04-15T20:16:26.479Z,13.70
2018-04-15T20:18:53.025Z,13.60
2018-04-15T20:21:20.236Z,13.60
2018-04-15T20:23:46.725Z,13.50
2018-04-15T20:26:13.149Z,13.60
2018-04-15T20:28:39.604Z,13.60
2018-04-15T20:31:06.991Z,13.60
2018-04-15T20:33:33.437Z,13.50
2018-04-15T20:35:59.957Z,13.60
2018-04-15T20:38:26.463Z,13.60
2018-04-15T20:40:53.069Z,13.60
2018-04-15T20:43:19.826Z,13.60
2018-04-15T20:45:46.275Z,13.60
2018-04-15T20:48:12.780Z,13.60
2018-04-15T20:50:39.215Z,13.50
2018-04-15T20:53:05.722Z,13.50
2018-04-15T20:55:36.108Z,13.40
2018-04-15T20:58:02.584Z,13.40
2018-04-15T21:00:29.033Z,13.40
2018-04-15T21:02:55.541Z,13.30
2018-04-15T21:05:22.856Z,13.30
2018-04-15T21:07:50.210Z,13.30
2018-04-15T21:10:16.719Z,13.20
2018-04-15T21:12:43.197Z,13.20
2018-04-15T21:15:09.636Z,13.20
2018-04-15T21:17:37.920Z,13.10
2018-04-15T21:20:07.168Z,13.10
2018-04-15T21:22:33.661Z,13.10
2018-04-15T21:25:00.127Z,13.10
2018-04-15T21:27:26.642Z,13.10
2018-04-15T21:29:54.219Z,13.10
2018-04-15T21:32:20.801Z,13.10
2018-04-15T21:34:48.028Z,13.10
2018-04-15T21:37:14.536Z,13.10
2018-04-15T21:39:41.021Z,13.10
2018-04-15T21:42:07.508Z,13.10
2018-04-15T21:44:33.960Z,13.00
2018-04-15T21:47:00.458Z,13.00
2018-04-15T21:49:27.643Z,12.90
2018-04-15T21:51:54.087Z,12.90
2018-04-15T21:54:20.575Z,12.90
2018-04-15T21:56:47.799Z,12.90
2018-04-15T21:59:14.305Z,12.90
2018-04-15T22:01:40.812Z,12.90
2018-04-15T22:04:08.097Z,12.80
2018-04-15T22:06:34.551Z,12.80
2018-04-15T22:09:01.052Z,12.80
2018-04-15T22:11:39.729Z,12.80
2018-04-15T22:14:06.190Z,12.80
2018-04-15T22:16:37.310Z,12.80
2018-04-15T22:19:04.544Z,12.80
2018-04-15T22:21:31.008Z,12.70
2018-04-15T22:23:58.272Z,12.70
2018-04-15T22:26:25.496Z,12.70
2018-04-15T22:28:52.056Z,12.70
2018-04-15T22:31:18.496Z,12.60
2018-04-15T22:33:45.695Z,12.60
2018-04-15T22:36:12.136Z,12.60
2018-04-15T22:38:38.613Z,12.50
2018-04-15T22:41:05.789Z,12.50
2018-04-15T22:43:32.277Z,12.50
2018-04-15T22:45:58.705Z,12.50
2018-04-15T22:48:36.004Z,12.40
2018-04-15T22:51:02.464Z,12.40
2018-04-15T22:53:29.754Z,12.40
2018-04-15T22:55:56.253Z,12.40
2018-04-15T22:58:23.503Z,12.40
2018-04-15T23:00:50.701Z,12.40
2018-04-15T23:03:21.841Z,12.30
2018-04-15T23:05:48.279Z,12.30
2018-04-15T23:08:14.743Z,12.30
2018-04-15T23:10:41.975Z,12.20
2018-04-15T23:13:08.524Z,12.20
2018-04-15T23:15:35.007Z,12.20
2018-04-15T23:18:02.244Z,12.20
2018-04-15T23:20:28.693Z,12.10
2018-04-15T23:22:55.899Z,12.10
2018-04-15T23:25:22.356Z,12.10
2018-04-15T23:27:48.883Z,12.10
2018-04-15T23:30:15.344Z,12.00
2018-04-15T23:32:42.563Z,12.00
2018-04-15T23:35:09.776Z,11.90
2018-04-15T23:37:36.242Z,11.90
2018-04-15T23:40:02.723Z,11.90
2018-04-15T23:42:30.044Z,11.90
2018-04-15T23:44:56.469Z,11.90
2018-04-15T23:47:22.928Z,11.90
2018-04-15T23:49:49.334Z,11.80
2018-04-15T23:52:15.799Z,11.70
2018-04-15T23:54:42.220Z,11.70
2018-04-15T23:57:08.792Z,11.70
2018-04-15T23:59:35.984Z,11.70
